sensor_id;sensor_type;location;lat;lon;timestamp;P1;durP1;ratioP1;P2;durP2;ratioP2
48875;SDS011;34689;51.644;5.618;2022-12-07T00:01:32;6.10;;;3.63;;
48875;SDS011;34689;51.644;5.618;2022-12-07T00:04:00;4.80;;;3.50;;
48875;SDS011;34689;51.644;5.618;2022-12-07T00:06:31;4.68;;;3.08;;
48875;SDS011;34689;51.644;5.618;2022-12-07T00:09:16;5.63;;;3.47;;
48875;SDS011;34689;51.644;5.618;2022-12-07T00:11:42;5.15;;;3.47;;
48875;SDS011;34689;51.644;5.618;2022-12-07T00:14:13;5.13;;;2.92;;
48875;SDS011;34689;51.644;5.618;2022-12-07T00:16:39;4.80;;;2.75;;
48875;SDS011;34689;51.644;5.618;2022-12-07T00:19:06;4.97;;;3.00;;
48875;SDS011;34689;51.644;5.618;2022-12-07T00:21:32;6.05;;;3.63;;
48875;SDS011;34689;51.644;5.618;2022-12-07T00:24:00;5.47;;;3.88;;
48875;SDS011;34689;51.644;5.618;2022-12-07T00:26:27;3.40;;;2.13;;
48875;SDS011;34689;51.644;5.618;2022-12-07T00:28:55;4.90;;;3.15;;
48875;SDS011;34689;51.644;5.618;2022-12-07T00:31:24;5.00;;;3.03;;
48875;SDS011;34689;51.644;5.618;2022-12-07T00:33:57;4.55;;;3.15;;
48875;SDS011;34689;51.644;5.618;2022-12-07T00:36:23;6.20;;;3.15;;
48875;SDS011;34689;51.644;5.618;2022-12-07T00:38:50;6.93;;;3.38;;
48875;SDS011;34689;51.644;5.618;2022-12-07T00:41:17;4.20;;;2.42;;
48875;SDS011;34689;51.644;5.618;2022-12-07T00:43:47;4.72;;;2.88;;
48875;SDS011;34689;51.644;5.618;2022-12-07T00:46:14;5.80;;;3.75;;
48875;SDS011;34689;51.644;5.618;2022-12-07T00:48:41;4.85;;;3.55;;
48875;SDS011;34689;51.644;5.618;2022-12-07T00:51:07;4.00;;;2.70;;
48875;SDS011;34689;51.644;5.618;2022-12-07T00:53:34;5.22;;;3.03;;
48875;SDS011;34689;51.644;5.618;2022-12-07T00:56:08;5.45;;;3.13;;
48875;SDS011;34689;51.644;5.618;2022-12-07T00:58:36;5.45;;;3.92;;
48875;SDS011;34689;51.644;5.618;2022-12-07T01:01:02;3.13;;;2.20;;
48875;SDS011;34689;51.644;5.618;2022-12-07T01:03:29;3.78;;;2.53;;
48875;SDS011;34689;51.644;5.618;2022-12-07T01:05:55;7.38;;;3.05;;
48875;SDS011;34689;51.644;5.618;2022-12-07T01:08:22;6.00;;;3.40;;
48875;SDS011;34689;51.644;5.618;2022-12-07T01:10:48;4.93;;;3.40;;
48875;SDS011;34689;51.644;5.618;2022-12-07T01:13:14;6.07;;;2.60;;
48875;SDS011;34689;51.644;5.618;2022-12-07T01:15:44;4.80;;;2.97;;
48875;SDS011;34689;51.644;5.618;2022-12-07T01:18:10;5.90;;;3.47;;
48875;SDS011;34689;51.644;5.618;2022-12-07T01:20:36;6.53;;;3.33;;
48875;SDS011;34689;51.644;5.618;2022-12-07T01:23:02;4.40;;;3.08;;
48875;SDS011;34689;51.644;5.618;2022-12-07T01:25:28;6.70;;;3.83;;
48875;SDS011;34689;51.644;5.618;2022-12-07T01:27:53;4.53;;;2.83;;
48875;SDS011;34689;51.644;5.618;2022-12-07T01:30:19;6.57;;;4.15;;
48875;SDS011;34689;51.644;5.618;2022-12-07T01:32:45;4.55;;;2.88;;
48875;SDS011;34689;51.644;5.618;2022-12-07T01:35:11;4.10;;;2.47;;
48875;SDS011;34689;51.644;5.618;2022-12-07T01:37:37;4.00;;;2.92;;
48875;SDS011;34689;51.644;5.618;2022-12-07T01:40:07;6.43;;;2.88;;
48875;SDS011;34689;51.644;5.618;2022-12-07T01:42:33;4.63;;;2.97;;
48875;SDS011;34689;51.644;5.618;2022-12-07T01:47:44;5.50;;;3.65;;
48875;SDS011;34689;51.644;5.618;2022-12-07T01:50:14;4.45;;;3.33;;
48875;SDS011;34689;51.644;5.618;2022-12-07T01:52:40;6.68;;;3.60;;
48875;SDS011;34689;51.644;5.618;2022-12-07T01:55:09;4.30;;;3.03;;
48875;SDS011;34689;51.644;5.618;2022-12-07T01:57:39;4.75;;;2.83;;
48875;SDS011;34689;51.644;5.618;2022-12-07T02:00:10;4.35;;;3.05;;
48875;SDS011;34689;51.644;5.618;2022-12-07T02:02:38;5.03;;;3.08;;
48875;SDS011;34689;51.644;5.618;2022-12-07T02:05:27;5.90;;;3.78;;
48875;SDS011;34689;51.644;5.618;2022-12-07T02:07:53;4.80;;;2.78;;
48875;SDS011;34689;51.644;5.618;2022-12-07T02:10:25;4.47;;;2.53;;
48875;SDS011;34689;51.644;5.618;2022-12-07T02:12:56;5.50;;;2.75;;
48875;SDS011;34689;51.644;5.618;2022-12-07T02:21:33;5.53;;;3.17;;
48875;SDS011;34689;51.644;5.618;2022-12-07T02:29:27;4.00;;;2.78;;
48875;SDS011;34689;51.644;5.618;2022-12-07T02:32:06;4.93;;;2.92;;
48875;SDS011;34689;51.644;5.618;2022-12-07T02:39:51;4.78;;;2.75;;
48875;SDS011;34689;51.644;5.618;2022-12-07T02:42:33;4.15;;;2.85;;
48875;SDS011;34689;51.644;5.618;2022-12-07T02:45:01;4.78;;;2.70;;
48875;SDS011;34689;51.644;5.618;2022-12-07T02:47:29;5.65;;;2.92;;
48875;SDS011;34689;51.644;5.618;2022-12-07T02:49:56;5.13;;;2.97;;
48875;SDS011;34689;51.644;5.618;2022-12-07T02:52:22;3.95;;;2.42;;
48875;SDS011;34689;51.644;5.618;2022-12-07T02:54:48;3.03;;;2.05;;
48875;SDS011;34689;51.644;5.618;2022-12-07T03:00:34;5.50;;;2.95;;
48875;SDS011;34689;51.644;5.618;2022-12-07T03:02:59;3.47;;;2.65;;
48875;SDS011;34689;51.644;5.618;2022-12-07T03:16:20;3.97;;;2.17;;
48875;SDS011;34689;51.644;5.618;2022-12-07T03:22:00;2.72;;;1.60;;
48875;SDS011;34689;51.644;5.618;2022-12-07T03:24:34;5.82;;;2.40;;
48875;SDS011;34689;51.644;5.618;2022-12-07T03:27:38;4.00;;;2.33;;
48875;SDS011;34689;51.644;5.618;2022-12-07T03:30:10;3.92;;;2.08;;
48875;SDS011;34689;51.644;5.618;2022-12-07T03:32:49;3.53;;;2.10;;
48875;SDS011;34689;51.644;5.618;2022-12-07T03:35:32;4.85;;;2.75;;
48875;SDS011;34689;51.644;5.618;2022-12-07T03:38:16;3.90;;;2.28;;
48875;SDS011;34689;51.644;5.618;2022-12-07T03:41:12;3.47;;;1.90;;
48875;SDS011;34689;51.644;5.618;2022-12-07T03:43:43;6.43;;;2.78;;
48875;SDS011;34689;51.644;5.618;2022-12-07T03:54:33;3.67;;;2.28;;
48875;SDS011;34689;51.644;5.618;2022-12-07T03:57:04;4.82;;;2.22;;
48875;SDS011;34689;51.644;5.618;2022-12-07T03:59:32;2.20;;;1.88;;
48875;SDS011;34689;51.644;5.618;2022-12-07T04:02:02;7.05;;;2.35;;
48875;SDS011;34689;51.644;5.618;2022-12-07T04:04:29;2.97;;;2.10;;
48875;SDS011;34689;51.644;5.618;2022-12-07T04:06:55;3.10;;;2.08;;
48875;SDS011;34689;51.644;5.618;2022-12-07T04:09:21;2.38;;;1.52;;
48875;SDS011;34689;51.644;5.618;2022-12-07T04:11:46;3.28;;;2.05;;
48875;SDS011;34689;51.644;5.618;2022-12-07T04:14:12;3.88;;;1.55;;
48875;SDS011;34689;51.644;5.618;2022-12-07T04:16:48;3.57;;;1.90;;
48875;SDS011;34689;51.644;5.618;2022-12-07T04:19:19;1.80;;;1.20;;
48875;SDS011;34689;51.644;5.618;2022-12-07T04:21:47;2.08;;;1.20;;
48875;SDS011;34689;51.644;5.618;2022-12-07T04:24:13;4.75;;;2.17;;
48875;SDS011;34689;51.644;5.618;2022-12-07T04:26:40;1.58;;;1.30;;
48875;SDS011;34689;51.644;5.618;2022-12-07T04:29:06;1.92;;;1.52;;
48875;SDS011;34689;51.644;5.618;2022-12-07T04:31:32;3.40;;;1.85;;
48875;SDS011;34689;51.644;5.618;2022-12-07T04:33:58;3.67;;;1.73;;
48875;SDS011;34689;51.644;5.618;2022-12-07T04:36:24;3.05;;;1.70;;
48875;SDS011;34689;51.644;5.618;2022-12-07T04:38:50;1.73;;;1.13;;
48875;SDS011;34689;51.644;5.618;2022-12-07T04:41:18;1.70;;;1.25;;
48875;SDS011;34689;51.644;5.618;2022-12-07T04:43:44;3.50;;;1.60;;
48875;SDS011;34689;51.644;5.618;2022-12-07T04:46:09;3.40;;;1.85;;
48875;SDS011;34689;51.644;5.618;2022-12-07T04:48:35;1.40;;;1.20;;
48875;SDS011;34689;51.644;5.618;2022-12-07T04:51:02;1.83;;;1.05;;
48875;SDS011;34689;51.644;5.618;2022-12-07T04:53:28;2.05;;;1.48;;
48875;SDS011;34689;51.644;5.618;2022-12-07T04:55:54;4.82;;;1.80;;
48875;SDS011;34689;51.644;5.618;2022-12-07T04:58:19;5.10;;;1.70;;
48875;SDS011;34689;51.644;5.618;2022-12-07T05:00:45;5.25;;;1.85;;
48875;SDS011;34689;51.644;5.618;2022-12-07T05:03:11;2.58;;;1.77;;
48875;SDS011;34689;51.644;5.618;2022-12-07T05:05:39;1.90;;;1.15;;
48875;SDS011;34689;51.644;5.618;2022-12-07T05:08:06;2.33;;;1.73;;
48875;SDS011;34689;51.644;5.618;2022-12-07T05:10:32;3.13;;;1.30;;
48875;SDS011;34689;51.644;5.618;2022-12-07T05:12:57;3.28;;;1.27;;
48875;SDS011;34689;51.644;5.618;2022-12-07T05:15:23;3.05;;;1.35;;
48875;SDS011;34689;51.644;5.618;2022-12-07T05:17:49;3.10;;;1.38;;
48875;SDS011;34689;51.644;5.618;2022-12-07T05:20:14;4.18;;;1.48;;
48875;SDS011;34689;51.644;5.618;2022-12-07T05:22:40;1.65;;;1.00;;
48875;SDS011;34689;51.644;5.618;2022-12-07T05:25:06;3.28;;;1.40;;
48875;SDS011;34689;51.644;5.618;2022-12-07T05:27:32;2.80;;;1.20;;
48875;SDS011;34689;51.644;5.618;2022-12-07T05:29:57;1.73;;;1.25;;
48875;SDS011;34689;51.644;5.618;2022-12-07T05:32:23;1.65;;;1.00;;
48875;SDS011;34689;51.644;5.618;2022-12-07T05:34:48;1.75;;;1.27;;
48875;SDS011;34689;51.644;5.618;2022-12-07T05:37:14;1.25;;;0.88;;
48875;SDS011;34689;51.644;5.618;2022-12-07T05:39:40;2.78;;;1.20;;
48875;SDS011;34689;51.644;5.618;2022-12-07T05:42:08;2.95;;;1.20;;
48875;SDS011;34689;51.644;5.618;2022-12-07T05:44:42;1.48;;;1.17;;
48875;SDS011;34689;51.644;5.618;2022-12-07T05:47:09;1.20;;;0.80;;
48875;SDS011;34689;51.644;5.618;2022-12-07T05:49:38;3.08;;;1.42;;
48875;SDS011;34689;51.644;5.618;2022-12-07T05:52:04;1.98;;;1.50;;
48875;SDS011;34689;51.644;5.618;2022-12-07T05:54:30;2.50;;;1.38;;
48875;SDS011;34689;51.644;5.618;2022-12-07T05:56:56;1.17;;;0.85;;
48875;SDS011;34689;51.644;5.618;2022-12-07T05:59:22;0.95;;;0.77;;
48875;SDS011;34689;51.644;5.618;2022-12-07T06:01:49;2.72;;;1.08;;
48875;SDS011;34689;51.644;5.618;2022-12-07T06:04:17;1.45;;;1.05;;
48875;SDS011;34689;51.644;5.618;2022-12-07T06:06:43;2.78;;;1.00;;
48875;SDS011;34689;51.644;5.618;2022-12-07T06:09:08;1.85;;;1.20;;
48875;SDS011;34689;51.644;5.618;2022-12-07T06:11:35;1.50;;;0.82;;
48875;SDS011;34689;51.644;5.618;2022-12-07T06:14:19;1.13;;;0.75;;
48875;SDS011;34689;51.644;5.618;2022-12-07T06:16:44;1.70;;;1.00;;
48875;SDS011;34689;51.644;5.618;2022-12-07T06:19:10;1.30;;;0.88;;
48875;SDS011;34689;51.644;5.618;2022-12-07T06:21:36;1.90;;;1.10;;
48875;SDS011;34689;51.644;5.618;2022-12-07T06:24:01;2.35;;;1.35;;
48875;SDS011;34689;51.644;5.618;2022-12-07T06:26:27;1.85;;;1.23;;
48875;SDS011;34689;51.644;5.618;2022-12-07T06:28:53;2.30;;;1.30;;
48875;SDS011;34689;51.644;5.618;2022-12-07T06:31:19;1.20;;;0.90;;
48875;SDS011;34689;51.644;5.618;2022-12-07T06:33:44;1.77;;;1.33;;
48875;SDS011;34689;51.644;5.618;2022-12-07T06:36:10;2.33;;;1.58;;
48875;SDS011;34689;51.644;5.618;2022-12-07T06:38:36;1.65;;;1.15;;
48875;SDS011;34689;51.644;5.618;2022-12-07T06:41:02;3.63;;;1.60;;
48875;SDS011;34689;51.644;5.618;2022-12-07T06:43:28;2.08;;;1.00;;
48875;SDS011;34689;51.644;5.618;2022-12-07T06:45:54;1.77;;;0.80;;
48875;SDS011;34689;51.644;5.618;2022-12-07T06:48:21;4.05;;;1.73;;
48875;SDS011;34689;51.644;5.618;2022-12-07T06:50:47;4.95;;;0.95;;
48875;SDS011;34689;51.644;5.618;2022-12-07T06:53:13;5.13;;;1.70;;
48875;SDS011;34689;51.644;5.618;2022-12-07T06:55:39;1.98;;;1.08;;
48875;SDS011;34689;51.644;5.618;2022-12-07T06:58:04;4.18;;;1.48;;
48875;SDS011;34689;51.644;5.618;2022-12-07T07:00:30;3.00;;;1.13;;
48875;SDS011;34689;51.644;5.618;2022-12-07T07:02:56;6.20;;;1.73;;
48875;SDS011;34689;51.644;5.618;2022-12-07T07:05:21;1.88;;;1.30;;
48875;SDS011;34689;51.644;5.618;2022-12-07T07:07:48;1.83;;;1.20;;
48875;SDS011;34689;51.644;5.618;2022-12-07T07:10:14;2.33;;;1.33;;
48875;SDS011;34689;51.644;5.618;2022-12-07T07:12:40;4.75;;;1.52;;
48875;SDS011;34689;51.644;5.618;2022-12-07T07:15:06;3.17;;;1.80;;
48875;SDS011;34689;51.644;5.618;2022-12-07T07:17:32;2.78;;;1.40;;
48875;SDS011;34689;51.644;5.618;2022-12-07T07:19:57;3.70;;;2.33;;
48875;SDS011;34689;51.644;5.618;2022-12-07T07:22:23;3.70;;;1.55;;
48875;SDS011;34689;51.644;5.618;2022-12-07T07:24:49;4.70;;;2.30;;
48875;SDS011;34689;51.644;5.618;2022-12-07T07:27:14;7.50;;;2.50;;
48875;SDS011;34689;51.644;5.618;2022-12-07T07:29:40;3.05;;;1.92;;
48875;SDS011;34689;51.644;5.618;2022-12-07T07:32:05;2.13;;;1.38;;
48875;SDS011;34689;51.644;5.618;2022-12-07T07:34:32;6.22;;;1.85;;
48875;SDS011;34689;51.644;5.618;2022-12-07T07:36:58;2.63;;;1.70;;
48875;SDS011;34689;51.644;5.618;2022-12-07T07:39:24;4.22;;;2.33;;
48875;SDS011;34689;51.644;5.618;2022-12-07T07:41:49;3.50;;;1.80;;
48875;SDS011;34689;51.644;5.618;2022-12-07T07:44:15;3.53;;;1.42;;
48875;SDS011;34689;51.644;5.618;2022-12-07T07:46:41;3.75;;;1.70;;
48875;SDS011;34689;51.644;5.618;2022-12-07T07:49:07;3.10;;;1.65;;
48875;SDS011;34689;51.644;5.618;2022-12-07T07:51:35;3.15;;;1.90;;
48875;SDS011;34689;51.644;5.618;2022-12-07T07:54:00;2.60;;;1.75;;
48875;SDS011;34689;51.644;5.618;2022-12-07T07:56:26;2.10;;;1.48;;
48875;SDS011;34689;51.644;5.618;2022-12-07T07:58:52;3.47;;;2.13;;
48875;SDS011;34689;51.644;5.618;2022-12-07T08:01:18;3.97;;;1.65;;
48875;SDS011;34689;51.644;5.618;2022-12-07T08:03:45;4.28;;;2.08;;
48875;SDS011;34689;51.644;5.618;2022-12-07T08:06:11;3.50;;;2.05;;
48875;SDS011;34689;51.644;5.618;2022-12-07T08:08:37;3.22;;;1.33;;
48875;SDS011;34689;51.644;5.618;2022-12-07T08:11:06;2.35;;;1.40;;
48875;SDS011;34689;51.644;5.618;2022-12-07T08:13:33;2.30;;;1.35;;
48875;SDS011;34689;51.644;5.618;2022-12-07T08:16:02;1.48;;;1.23;;
48875;SDS011;34689;51.644;5.618;2022-12-07T08:18:29;1.98;;;1.23;;
48875;SDS011;34689;51.644;5.618;2022-12-07T08:20:59;2.70;;;1.63;;
48875;SDS011;34689;51.644;5.618;2022-12-07T08:25:54;4.60;;;2.17;;
48875;SDS011;34689;51.644;5.618;2022-12-07T08:28:19;3.63;;;1.63;;
48875;SDS011;34689;51.644;5.618;2022-12-07T08:30:45;2.33;;;1.40;;
48875;SDS011;34689;51.644;5.618;2022-12-07T08:33:11;5.28;;;1.55;;
48875;SDS011;34689;51.644;5.618;2022-12-07T08:35:38;3.08;;;1.08;;
48875;SDS011;34689;51.644;5.618;2022-12-07T08:38:03;3.13;;;1.48;;
48875;SDS011;34689;51.644;5.618;2022-12-07T08:40:29;3.85;;;1.65;;
48875;SDS011;34689;51.644;5.618;2022-12-07T08:42:55;2.08;;;1.50;;
48875;SDS011;34689;51.644;5.618;2022-12-07T08:45:21;2.15;;;1.48;;
48875;SDS011;34689;51.644;5.618;2022-12-07T08:50:18;2.65;;;1.23;;
48875;SDS011;34689;51.644;5.618;2022-12-07T08:52:43;4.78;;;2.03;;
48875;SDS011;34689;51.644;5.618;2022-12-07T08:55:12;2.20;;;1.13;;
48875;SDS011;34689;51.644;5.618;2022-12-07T08:57:38;2.42;;;1.27;;
48875;SDS011;34689;51.644;5.618;2022-12-07T09:00:05;1.55;;;0.98;;
48875;SDS011;34689;51.644;5.618;2022-12-07T09:02:31;3.67;;;1.50;;
48875;SDS011;34689;51.644;5.618;2022-12-07T09:04:57;4.65;;;1.65;;
48875;SDS011;34689;51.644;5.618;2022-12-07T09:07:23;4.03;;;1.63;;
48875;SDS011;34689;51.644;5.618;2022-12-07T09:09:49;3.08;;;1.63;;
48875;SDS011;34689;51.644;5.618;2022-12-07T09:12:15;2.88;;;1.35;;
48875;SDS011;34689;51.644;5.618;2022-12-07T09:14:40;4.20;;;1.08;;
48875;SDS011;34689;51.644;5.618;2022-12-07T09:17:10;1.20;;;0.93;;
48875;SDS011;34689;51.644;5.618;2022-12-07T09:19:37;3.08;;;0.80;;
48875;SDS011;34689;51.644;5.618;2022-12-07T09:22:04;1.02;;;0.77;;
48875;SDS011;34689;51.644;5.618;2022-12-07T09:24:30;2.50;;;1.40;;
48875;SDS011;34689;51.644;5.618;2022-12-07T09:26:57;3.25;;;1.30;;
48875;SDS011;34689;51.644;5.618;2022-12-07T09:29:23;1.65;;;1.08;;
48875;SDS011;34689;51.644;5.618;2022-12-07T09:31:49;1.73;;;1.05;;
48875;SDS011;34689;51.644;5.618;2022-12-07T09:34:14;1.75;;;0.90;;
48875;SDS011;34689;51.644;5.618;2022-12-07T09:36:40;4.05;;;1.15;;
48875;SDS011;34689;51.644;5.618;2022-12-07T09:39:07;1.95;;;0.95;;
48875;SDS011;34689;51.644;5.618;2022-12-07T09:41:33;1.17;;;0.75;;
48875;SDS011;34689;51.644;5.618;2022-12-07T09:44:05;1.77;;;0.80;;
48875;SDS011;34689;51.644;5.618;2022-12-07T09:46:43;0.80;;;0.50;;
48875;SDS011;34689;51.644;5.618;2022-12-07T09:49:16;0.47;;;0.40;;
48875;SDS011;34689;51.644;5.618;2022-12-07T09:51:55;3.20;;;1.02;;
48875;SDS011;34689;51.644;5.618;2022-12-07T09:54:34;1.67;;;0.75;;
48875;SDS011;34689;51.644;5.618;2022-12-07T09:57:04;2.00;;;0.52;;
48875;SDS011;34689;51.644;5.618;2022-12-07T09:59:29;1.63;;;0.70;;
48875;SDS011;34689;51.644;5.618;2022-12-07T10:01:55;2.42;;;0.88;;
48875;SDS011;34689;51.644;5.618;2022-12-07T10:04:41;2.63;;;0.90;;
48875;SDS011;34689;51.644;5.618;2022-12-07T10:07:09;1.25;;;1.05;;
48875;SDS011;34689;51.644;5.618;2022-12-07T10:09:34;0.57;;;0.50;;
48875;SDS011;34689;51.644;5.618;2022-12-07T10:12:04;0.82;;;0.70;;
48875;SDS011;34689;51.644;5.618;2022-12-07T10:14:32;2.60;;;1.00;;
48875;SDS011;34689;51.644;5.618;2022-12-07T10:16:59;2.70;;;0.52;;
48875;SDS011;34689;51.644;5.618;2022-12-07T10:19:29;0.65;;;0.45;;
48875;SDS011;34689;51.644;5.618;2022-12-07T10:24:33;4.40;;;1.13;;
48875;SDS011;34689;51.644;5.618;2022-12-07T10:26:59;0.82;;;0.70;;
48875;SDS011;34689;51.644;5.618;2022-12-07T10:29:29;1.33;;;0.70;;
48875;SDS011;34689;51.644;5.618;2022-12-07T10:32:02;3.40;;;0.90;;
48875;SDS011;34689;51.644;5.618;2022-12-07T10:34:32;1.17;;;0.40;;
48875;SDS011;34689;51.644;5.618;2022-12-07T10:39:41;0.63;;;0.43;;
48875;SDS011;34689;51.644;5.618;2022-12-07T10:42:26;1.13;;;0.60;;
48875;SDS011;34689;51.644;5.618;2022-12-07T10:45:09;1.92;;;0.80;;
48875;SDS011;34689;51.644;5.618;2022-12-07T10:58:59;1.83;;;0.88;;
48875;SDS011;34689;51.644;5.618;2022-12-07T11:15:00;2.70;;;0.80;;
48875;SDS011;34689;51.644;5.618;2022-12-07T11:21:03;4.28;;;0.90;;
48875;SDS011;34689;51.644;5.618;2022-12-07T11:26:21;0.38;;;0.35;;
48875;SDS011;34689;51.644;5.618;2022-12-07T11:29:03;3.35;;;0.73;;
48875;SDS011;34689;51.644;5.618;2022-12-07T11:37:13;1.20;;;0.70;;
48875;SDS011;34689;51.644;5.618;2022-12-07T11:39:48;3.67;;;1.10;;
48875;SDS011;34689;51.644;5.618;2022-12-07T11:42:26;2.42;;;1.00;;
48875;SDS011;34689;51.644;5.618;2022-12-07T11:45:03;2.28;;;0.90;;
48875;SDS011;34689;51.644;5.618;2022-12-07T11:50:38;2.63;;;0.65;;
48875;SDS011;34689;51.644;5.618;2022-12-07T11:53:24;1.52;;;0.95;;
48875;SDS011;34689;51.644;5.618;2022-12-07T12:01:24;1.98;;;0.80;;
48875;SDS011;34689;51.644;5.618;2022-12-07T12:06:34;2.25;;;1.00;;
48875;SDS011;34689;51.644;5.618;2022-12-07T12:09:05;3.60;;;0.80;;
48875;SDS011;34689;51.644;5.618;2022-12-07T12:22:46;4.50;;;1.02;;
48875;SDS011;34689;51.644;5.618;2022-12-07T12:25:57;2.40;;;1.13;;
48875;SDS011;34689;51.644;5.618;2022-12-07T12:28:15;3.20;;;1.27;;
48875;SDS011;34689;51.644;5.618;2022-12-07T12:33:38;2.30;;;1.00;;
48875;SDS011;34689;51.644;5.618;2022-12-07T12:46:59;1.52;;;0.57;;
48875;SDS011;34689;51.644;5.618;2022-12-07T12:54:59;0.80;;;0.47;;
48875;SDS011;34689;51.644;5.618;2022-12-07T12:57:36;1.52;;;0.30;;
48875;SDS011;34689;51.644;5.618;2022-12-07T13:00:16;0.98;;;0.52;;
48875;SDS011;34689;51.644;5.618;2022-12-07T13:02:56;2.55;;;0.28;;
48875;SDS011;34689;51.644;5.618;2022-12-07T13:05:33;0.68;;;0.25;;
48875;SDS011;34689;51.644;5.618;2022-12-07T13:08:18;0.93;;;0.30;;
48875;SDS011;34689;51.644;5.618;2022-12-07T13:10:49;1.40;;;0.30;;
48875;SDS011;34689;51.644;5.618;2022-12-07T13:26:17;1.85;;;0.30;;
48875;SDS011;34689;51.644;5.618;2022-12-07T13:34:26;1.27;;;0.40;;
48875;SDS011;34689;51.644;5.618;2022-12-07T13:37:01;2.25;;;0.60;;
48875;SDS011;34689;51.644;5.618;2022-12-07T13:39:47;0.65;;;0.40;;
48875;SDS011;34689;51.644;5.618;2022-12-07T13:44:51;2.65;;;0.35;;
48875;SDS011;34689;51.644;5.618;2022-12-07T13:50:21;1.42;;;0.57;;
48875;SDS011;34689;51.644;5.618;2022-12-07T13:52:58;2.40;;;0.75;;
48875;SDS011;34689;51.644;5.618;2022-12-07T13:55:24;2.60;;;0.68;;
48875;SDS011;34689;51.644;5.618;2022-12-07T13:57:51;2.67;;;0.40;;
48875;SDS011;34689;51.644;5.618;2022-12-07T14:00:19;0.68;;;0.43;;
48875;SDS011;34689;51.644;5.618;2022-12-07T14:02:56;1.55;;;0.40;;
48875;SDS011;34689;51.644;5.618;2022-12-07T14:05:28;1.17;;;0.50;;
48875;SDS011;34689;51.644;5.618;2022-12-07T14:10:25;1.55;;;0.50;;
48875;SDS011;34689;51.644;5.618;2022-12-07T14:12:52;1.45;;;0.50;;
48875;SDS011;34689;51.644;5.618;2022-12-07T14:15:23;2.28;;;0.52;;
48875;SDS011;34689;51.644;5.618;2022-12-07T14:17:55;1.38;;;0.40;;
48875;SDS011;34689;51.644;5.618;2022-12-07T14:20:35;0.70;;;0.28;;
48875;SDS011;34689;51.644;5.618;2022-12-07T14:23:03;0.77;;;0.32;;
48875;SDS011;34689;51.644;5.618;2022-12-07T14:25:46;1.65;;;0.50;;
48875;SDS011;34689;51.644;5.618;2022-12-07T14:28:27;0.93;;;0.40;;
48875;SDS011;34689;51.644;5.618;2022-12-07T14:30:55;2.03;;;0.40;;
48875;SDS011;34689;51.644;5.618;2022-12-07T14:33:21;1.00;;;0.30;;
48875;SDS011;34689;51.644;5.618;2022-12-07T14:35:49;1.05;;;0.43;;
48875;SDS011;34689;51.644;5.618;2022-12-07T14:38:14;1.15;;;0.32;;
48875;SDS011;34689;51.644;5.618;2022-12-07T14:40:40;0.70;;;0.17;;
48875;SDS011;34689;51.644;5.618;2022-12-07T14:43:10;0.95;;;0.22;;
48875;SDS011;34689;51.644;5.618;2022-12-07T14:45:39;2.30;;;0.20;;
48875;SDS011;34689;51.644;5.618;2022-12-07T14:48:05;0.40;;;0.20;;
48875;SDS011;34689;51.644;5.618;2022-12-07T14:50:35;1.42;;;0.40;;
48875;SDS011;34689;51.644;5.618;2022-12-07T14:53:08;1.25;;;0.68;;
48875;SDS011;34689;51.644;5.618;2022-12-07T14:55:39;1.35;;;0.20;;
48875;SDS011;34689;51.644;5.618;2022-12-07T14:58:05;2.78;;;0.20;;
48875;SDS011;34689;51.644;5.618;2022-12-07T15:00:37;3.85;;;0.40;;
48875;SDS011;34689;51.644;5.618;2022-12-07T15:03:05;0.30;;;0.10;;
48875;SDS011;34689;51.644;5.618;2022-12-07T15:05:31;1.33;;;0.30;;
48875;SDS011;34689;51.644;5.618;2022-12-07T15:07:57;1.35;;;0.57;;
48875;SDS011;34689;51.644;5.618;2022-12-07T15:10:24;1.80;;;0.30;;
48875;SDS011;34689;51.644;5.618;2022-12-07T15:12:56;2.42;;;0.90;;
48875;SDS011;34689;51.644;5.618;2022-12-07T15:15:49;0.20;;;0.20;;
48875;SDS011;34689;51.644;5.618;2022-12-07T15:18:18;1.10;;;0.28;;
48875;SDS011;34689;51.644;5.618;2022-12-07T15:20:45;3.42;;;0.60;;
48875;SDS011;34689;51.644;5.618;2022-12-07T15:23:12;0.20;;;0.20;;
48875;SDS011;34689;51.644;5.618;2022-12-07T15:25:40;1.08;;;0.28;;
48875;SDS011;34689;51.644;5.618;2022-12-07T15:28:13;0.20;;;0.20;;
48875;SDS011;34689;51.644;5.618;2022-12-07T15:30:42;1.98;;;0.40;;
48875;SDS011;34689;51.644;5.618;2022-12-07T15:33:09;1.20;;;0.60;;
48875;SDS011;34689;51.644;5.618;2022-12-07T15:35:43;1.38;;;0.45;;
48875;SDS011;34689;51.644;5.618;2022-12-07T15:40:35;2.97;;;0.75;;
48875;SDS011;34689;51.644;5.618;2022-12-07T15:43:03;2.20;;;1.00;;
48875;SDS011;34689;51.644;5.618;2022-12-07T15:45:29;2.10;;;0.75;;
48875;SDS011;34689;51.644;5.618;2022-12-07T15:47:54;3.13;;;1.15;;
48875;SDS011;34689;51.644;5.618;2022-12-07T15:50:21;1.13;;;0.77;;
48875;SDS011;34689;51.644;5.618;2022-12-07T15:52:48;2.17;;;0.43;;
48875;SDS011;34689;51.644;5.618;2022-12-07T15:55:13;2.20;;;0.82;;
48875;SDS011;34689;51.644;5.618;2022-12-07T15:57:39;1.60;;;0.50;;
48875;SDS011;34689;51.644;5.618;2022-12-07T16:00:06;1.17;;;0.38;;
48875;SDS011;34689;51.644;5.618;2022-12-07T16:02:33;1.00;;;0.65;;
48875;SDS011;34689;51.644;5.618;2022-12-07T16:04:59;2.05;;;0.80;;
48875;SDS011;34689;51.644;5.618;2022-12-07T16:07:25;2.58;;;0.70;;
48875;SDS011;34689;51.644;5.618;2022-12-07T16:09:50;0.82;;;0.63;;
48875;SDS011;34689;51.644;5.618;2022-12-07T16:12:16;1.60;;;0.80;;
48875;SDS011;34689;51.644;5.618;2022-12-07T16:14:42;0.70;;;0.50;;
48875;SDS011;34689;51.644;5.618;2022-12-07T16:17:08;1.08;;;0.52;;
48875;SDS011;34689;51.644;5.618;2022-12-07T16:19:35;3.13;;;1.10;;
48875;SDS011;34689;51.644;5.618;2022-12-07T16:22:01;1.60;;;0.82;;
48875;SDS011;34689;51.644;5.618;2022-12-07T16:24:28;1.20;;;0.52;;
48875;SDS011;34689;51.644;5.618;2022-12-07T16:26:54;2.05;;;1.20;;
48875;SDS011;34689;51.644;5.618;2022-12-07T16:29:20;1.08;;;0.70;;
48875;SDS011;34689;51.644;5.618;2022-12-07T16:31:47;1.00;;;0.70;;
48875;SDS011;34689;51.644;5.618;2022-12-07T16:34:13;1.83;;;0.95;;
48875;SDS011;34689;51.644;5.618;2022-12-07T16:36:40;2.58;;;1.08;;
48875;SDS011;34689;51.644;5.618;2022-12-07T16:39:05;2.92;;;1.00;;
48875;SDS011;34689;51.644;5.618;2022-12-07T16:41:31;2.30;;;1.02;;
48875;SDS011;34689;51.644;5.618;2022-12-07T16:43:57;0.95;;;0.75;;
48875;SDS011;34689;51.644;5.618;2022-12-07T16:46:28;0.77;;;0.50;;
48875;SDS011;34689;51.644;5.618;2022-12-07T16:48:54;2.00;;;1.23;;
48875;SDS011;34689;51.644;5.618;2022-12-07T16:51:20;1.15;;;0.77;;
48875;SDS011;34689;51.644;5.618;2022-12-07T16:53:46;2.33;;;0.60;;
48875;SDS011;34689;51.644;5.618;2022-12-07T16:56:12;1.77;;;1.17;;
48875;SDS011;34689;51.644;5.618;2022-12-07T16:58:39;2.35;;;1.23;;
48875;SDS011;34689;51.644;5.618;2022-12-07T17:01:11;1.10;;;0.70;;
48875;SDS011;34689;51.644;5.618;2022-12-07T17:03:41;1.75;;;1.10;;
48875;SDS011;34689;51.644;5.618;2022-12-07T17:06:14;1.58;;;0.90;;
48875;SDS011;34689;51.644;5.618;2022-12-07T17:08:48;5.15;;;1.73;;
48875;SDS011;34689;51.644;5.618;2022-12-07T17:11:25;2.35;;;1.10;;
48875;SDS011;34689;51.644;5.618;2022-12-07T17:13:52;2.33;;;1.17;;
48875;SDS011;34689;51.644;5.618;2022-12-07T17:16:37;2.42;;;1.52;;
48875;SDS011;34689;51.644;5.618;2022-12-07T17:19:06;3.78;;;1.63;;
48875;SDS011;34689;51.644;5.618;2022-12-07T17:21:34;5.18;;;2.13;;
48875;SDS011;34689;51.644;5.618;2022-12-07T17:24:00;7.30;;;1.98;;
48875;SDS011;34689;51.644;5.618;2022-12-07T17:26:27;4.55;;;1.90;;
48875;SDS011;34689;51.644;5.618;2022-12-07T17:28:54;2.47;;;1.67;;
48875;SDS011;34689;51.644;5.618;2022-12-07T17:31:20;3.08;;;2.03;;
48875;SDS011;34689;51.644;5.618;2022-12-07T17:33:47;2.15;;;1.52;;
48875;SDS011;34689;51.644;5.618;2022-12-07T17:36:17;3.17;;;2.17;;
48875;SDS011;34689;51.644;5.618;2022-12-07T17:38:45;3.55;;;2.10;;
48875;SDS011;34689;51.644;5.618;2022-12-07T17:41:16;2.97;;;1.95;;